createdAt,value
2023-04-26T00:02:30.669Z,3.33
2023-04-26T00:05:32.030Z,3.92
2023-04-26T00:08:33.304Z,8.25
2023-04-26T00:11:34.215Z,3.75
2023-04-26T00:14:34.989Z,5.50
2023-04-26T00:17:36.655Z,3.65
2023-04-26T00:20:37.418Z,4.50
2023-04-26T00:23:38.749Z,4.53
2023-04-26T00:26:39.622Z,4.07
2023-04-26T00:29:40.426Z,3.70
2023-04-26T00:32:41.687Z,4.18
2023-04-26T00:35:42.929Z,4.82
2023-04-26T00:38:44.289Z,4.30
2023-04-26T00:41:45.000Z,4.28
2023-04-26T00:44:46.444Z,5.18
2023-04-26T00:47:47.462Z,3.92
2023-04-26T00:50:49.155Z,3.95
2023-04-26T00:53:50.713Z,4.82
2023-04-26T00:56:53.390Z,4.30
2023-04-26T00:59:54.350Z,3.72
2023-04-26T01:02:55.447Z,5.65
2023-04-26T01:05:57.796Z,4.30
2023-04-26T01:09:02.320Z,4.65
2023-04-26T01:12:05.740Z,4.40
2023-04-26T01:15:07.517Z,5.78
2023-04-26T01:18:08.673Z,4.30
2023-04-26T01:21:11.632Z,3.60
2023-04-26T01:24:14.050Z,6.38
2023-04-26T01:27:15.063Z,4.53
2023-04-26T01:30:17.178Z,4.65
2023-04-26T01:33:18.229Z,3.80
2023-04-26T01:36:19.258Z,4.30
2023-04-26T01:39:20.365Z,4.47
2023-04-26T01:42:21.460Z,5.25
2023-04-26T01:45:22.504Z,4.95
2023-04-26T01:48:41.811Z,5.05
2023-04-26T01:51:42.740Z,5.20
2023-04-26T01:54:43.580Z,5.35
2023-04-26T01:57:44.280Z,6.03
2023-04-26T02:00:46.234Z,6.78
2023-04-26T02:03:47.721Z,8.50
2023-04-26T02:06:48.883Z,6.47
2023-04-26T02:09:50.671Z,6.18
2023-04-26T02:12:51.528Z,5.53
2023-04-26T02:15:52.719Z,6.43
2023-04-26T02:18:54.037Z,8.98
2023-04-26T02:21:58.284Z,4.85
2023-04-26T02:24:59.267Z,4.70
2023-04-26T02:28:02.311Z,5.25
2023-04-26T02:31:03.843Z,8.23
2023-04-26T02:34:05.105Z,9.20
2023-04-26T02:37:07.766Z,8.05
2023-04-26T02:40:11.157Z,8.38
2023-04-26T02:43:12.569Z,6.60
2023-04-26T02:46:14.175Z,7.40
2023-04-26T02:49:16.964Z,8.90
2023-04-26T02:52:17.956Z,7.28
2023-04-26T02:55:18.905Z,6.10
2023-04-26T02:58:20.072Z,6.55
2023-04-26T03:01:21.395Z,11.73
2023-04-26T03:04:22.479Z,10.85
2023-04-26T03:07:23.353Z,8.45
2023-04-26T03:10:24.151Z,9.32
2023-04-26T03:13:25.073Z,9.52
2023-04-26T03:16:29.183Z,8.00
2023-04-26T03:19:30.439Z,8.18
2023-04-26T03:22:31.763Z,8.80
2023-04-26T03:25:34.481Z,12.95
2023-04-26T03:28:36.507Z,11.13
2023-04-26T03:31:38.230Z,11.95
2023-04-26T03:34:39.089Z,14.98
2023-04-26T03:37:40.247Z,14.10
2023-04-26T03:40:45.047Z,12.93
2023-04-26T03:43:46.309Z,13.63
2023-04-26T03:46:47.206Z,12.43
2023-04-26T03:49:48.081Z,10.32
2023-04-26T03:52:49.193Z,14.20
2023-04-26T03:55:50.425Z,15.65
2023-04-26T03:58:51.687Z,19.02
2023-04-26T04:01:52.945Z,15.00
2023-04-26T04:04:55.532Z,13.75
2023-04-26T04:07:57.067Z,15.10
2023-04-26T04:10:59.218Z,21.52
2023-04-26T04:14:00.504Z,23.65
2023-04-26T04:17:02.007Z,20.35
2023-04-26T04:20:07.644Z,20.92
2023-04-26T04:23:09.625Z,40.85
2023-04-26T04:26:12.851Z,21.23
2023-04-26T04:29:14.719Z,26.25
2023-04-26T04:32:17.485Z,19.30
2023-04-26T04:35:19.110Z,27.58
2023-04-26T04:38:20.896Z,30.92
2023-04-26T04:41:22.608Z,31.58
2023-04-26T04:44:24.573Z,40.15
2023-04-26T04:47:27.512Z,39.78
2023-04-26T04:50:29.748Z,40.90
2023-04-26T04:53:30.929Z,40.03
2023-04-26T04:56:32.180Z,50.17
2023-04-26T04:59:33.664Z,40.03
2023-04-26T05:02:35.235Z,34.13
2023-04-26T05:05:36.348Z,28.25
2023-04-26T05:08:38.107Z,37.75
2023-04-26T05:11:41.996Z,36.90
2023-04-26T05:14:44.464Z,34.47
2023-04-26T05:17:45.781Z,35.00
2023-04-26T05:20:51.562Z,32.58
2023-04-26T05:23:53.122Z,34.40
2023-04-26T05:26:54.282Z,40.63
2023-04-26T05:30:08.445Z,32.65
2023-04-26T05:33:21.099Z,30.15
2023-04-26T05:36:30.470Z,26.45
2023-04-26T05:39:32.084Z,28.98
2023-04-26T05:42:33.457Z,27.23
2023-04-26T05:45:34.480Z,25.50
2023-04-26T05:48:36.219Z,23.52
2023-04-26T05:51:37.466Z,21.58
2023-04-26T05:54:38.947Z,20.02
2023-04-26T05:57:40.786Z,16.70
2023-04-26T06:00:42.809Z,13.38
2023-04-26T06:03:47.015Z,12.82
2023-04-26T06:06:51.615Z,9.65
2023-04-26T06:09:55.462Z,10.70
2023-04-26T06:12:56.836Z,9.43
2023-04-26T06:16:00.874Z,10.60
2023-04-26T06:19:02.176Z,10.23
2023-04-26T06:22:03.522Z,9.80
2023-04-26T06:25:07.371Z,10.10
2023-04-26T06:28:11.268Z,8.52
2023-04-26T06:31:12.417Z,11.07
2023-04-26T06:34:14.558Z,8.95
2023-04-26T06:37:16.592Z,11.93
2023-04-26T06:40:18.367Z,11.65
2023-04-26T06:43:19.632Z,9.10
2023-04-26T06:46:30.619Z,13.23
2023-04-26T06:49:31.784Z,10.43
2023-04-26T06:52:33.084Z,14.13
2023-04-26T06:55:34.646Z,10.40
2023-04-26T06:58:36.647Z,9.63
2023-04-26T07:01:38.837Z,9.63
2023-04-26T07:04:40.120Z,11.10
2023-04-26T07:07:41.185Z,9.07
2023-04-26T07:10:42.465Z,6.90
2023-04-26T07:13:43.657Z,10.65
2023-04-26T07:16:45.485Z,8.05
2023-04-26T07:19:46.849Z,8.23
2023-04-26T07:22:47.984Z,8.73
2023-04-26T07:25:48.649Z,8.07
2023-04-26T07:28:51.638Z,6.75
2023-04-26T07:31:53.012Z,6.32
2023-04-26T07:34:54.278Z,11.82
2023-04-26T07:37:55.262Z,10.52
2023-04-26T07:40:56.696Z,5.30
2023-04-26T07:43:58.380Z,4.68
2023-04-26T07:46:59.356Z,6.10
2023-04-26T07:50:00.261Z,6.82
2023-04-26T07:53:01.277Z,5.80
2023-04-26T07:56:06.724Z,6.30
2023-04-26T07:59:07.908Z,5.10
2023-04-26T08:02:08.814Z,5.45
2023-04-26T08:05:10.426Z,6.90
2023-04-26T08:08:12.793Z,6.90
2023-04-26T08:11:14.154Z,7.03
2023-04-26T08:14:15.334Z,5.60
2023-04-26T08:17:16.197Z,6.10
2023-04-26T08:20:17.043Z,8.23
2023-04-26T08:23:19.814Z,6.10
2023-04-26T08:26:21.348Z,6.60
2023-04-26T08:29:23.904Z,6.47
2023-04-26T08:32:24.969Z,5.70
2023-04-26T08:35:26.533Z,7.00
2023-04-26T08:38:27.726Z,5.93
2023-04-26T08:41:30.593Z,6.28
2023-04-26T08:44:36.816Z,6.78
2023-04-26T08:47:45.744Z,6.85
2023-04-26T08:50:47.049Z,6.40
2023-04-26T08:53:53.515Z,6.43
2023-04-26T08:56:59.594Z,6.30
2023-04-26T09:00:06.025Z,6.40
2023-04-26T09:03:07.439Z,11.10
2023-04-26T09:06:09.364Z,6.72
2023-04-26T09:09:14.523Z,6.55
2023-04-26T09:12:21.575Z,6.22
2023-04-26T09:15:27.921Z,5.82
2023-04-26T09:18:28.984Z,5.97
2023-04-26T09:21:30.256Z,5.70
2023-04-26T09:24:49.476Z,7.10
2023-04-26T09:27:51.400Z,4.47
2023-04-26T09:30:52.585Z,4.53
2023-04-26T09:34:00.951Z,4.10
2023-04-26T09:37:02.192Z,4.53
2023-04-26T09:40:18.033Z,4.75
2023-04-26T09:43:21.773Z,3.65
2023-04-26T09:46:26.952Z,4.05
2023-04-26T09:49:51.804Z,4.30
2023-04-26T09:52:53.133Z,4.75
2023-04-26T09:56:09.958Z,3.97
2023-04-26T09:59:11.849Z,4.10
2023-04-26T10:02:19.254Z,3.58
2023-04-26T10:05:21.310Z,6.38
2023-04-26T10:08:22.202Z,3.58
2023-04-26T10:11:24.240Z,3.17
2023-04-26T10:14:25.838Z,3.00
2023-04-26T10:17:26.947Z,3.00
2023-04-26T10:20:30.055Z,3.05
2023-04-26T10:23:33.450Z,3.20
2023-04-26T10:26:55.052Z,3.33
2023-04-26T10:29:55.921Z,2.85
2023-04-26T10:32:57.296Z,2.80
2023-04-26T10:36:13.802Z,2.90
2023-04-26T10:39:25.435Z,3.03
2023-04-26T10:42:32.441Z,3.05
2023-04-26T10:45:33.463Z,2.58
2023-04-26T10:48:34.400Z,3.05
2023-04-26T10:51:35.670Z,3.03
2023-04-26T10:54:59.649Z,2.50
2023-04-26T10:58:01.597Z,2.55
2023-04-26T11:01:07.617Z,2.88
2023-04-26T11:04:11.835Z,2.70
2023-04-26T11:07:14.536Z,2.20
2023-04-26T11:10:23.346Z,3.38
2023-04-26T11:13:24.680Z,4.55
2023-04-26T11:16:29.454Z,3.10
2023-04-26T11:19:30.898Z,3.17
2023-04-26T11:22:31.811Z,2.72
2023-04-26T11:25:32.924Z,2.42
2023-04-26T11:28:36.878Z,6.75
2023-04-26T11:31:38.030Z,2.97
2023-04-26T11:34:39.647Z,5.00
2023-04-26T11:37:41.197Z,2.60
2023-04-26T11:40:42.572Z,2.72
2023-04-26T11:43:43.658Z,5.00
2023-04-26T11:46:46.067Z,4.85
2023-04-26T11:49:47.439Z,1.98
2023-04-26T11:52:48.360Z,2.53
2023-04-26T11:55:50.350Z,3.67
2023-04-26T11:58:53.390Z,2.72
2023-04-26T12:01:56.886Z,2.67
2023-04-26T12:05:01.259Z,2.47
2023-04-26T12:08:02.766Z,2.50
2023-04-26T12:11:04.163Z,3.15
2023-04-26T12:14:06.261Z,4.47
2023-04-26T12:17:08.323Z,4.07
2023-04-26T12:20:11.664Z,3.28
2023-04-26T12:23:17.687Z,3.00
2023-04-26T12:26:20.769Z,2.17
2023-04-26T12:29:22.385Z,2.13
2023-04-26T12:32:24.036Z,2.70
2023-04-26T12:35:25.809Z,3.75
2023-04-26T12:38:27.175Z,2.17
2023-04-26T12:41:28.052Z,3.25
2023-04-26T12:44:28.995Z,2.88
2023-04-26T12:47:32.109Z,3.38
2023-04-26T12:50:33.304Z,4.72
2023-04-26T12:53:34.976Z,2.85
2023-04-26T12:56:38.750Z,3.22
2023-04-26T12:59:40.105Z,3.10
2023-04-26T13:02:41.985Z,2.15
2023-04-26T13:05:43.493Z,2.83
2023-04-26T13:08:44.413Z,2.83
2023-04-26T13:11:45.882Z,4.20
2023-04-26T13:14:46.832Z,2.55
2023-04-26T13:17:48.029Z,4.53
2023-04-26T13:20:49.372Z,5.68
2023-04-26T13:23:50.748Z,3.47
2023-04-26T13:26:52.361Z,2.45
2023-04-26T13:29:53.706Z,3.17
2023-04-26T13:32:56.029Z,3.67
2023-04-26T13:35:57.870Z,2.05
2023-04-26T13:38:59.759Z,2.83
2023-04-26T13:42:02.196Z,3.45
2023-04-26T13:45:06.503Z,1.70
2023-04-26T13:48:07.386Z,2.05
2023-04-26T13:51:08.327Z,3.67
2023-04-26T13:54:11.653Z,3.63
2023-04-26T13:57:12.584Z,2.67
2023-04-26T14:00:14.906Z,3.53
2023-04-26T14:03:15.881Z,3.25
2023-04-26T14:06:17.184Z,5.20
2023-04-26T14:09:18.652Z,3.33
2023-04-26T14:12:19.513Z,2.20
2023-04-26T14:15:20.585Z,3.55
2023-04-26T14:18:21.574Z,2.35
2023-04-26T14:21:22.937Z,3.72
2023-04-26T14:24:24.433Z,2.05
2023-04-26T14:27:25.505Z,4.72
2023-04-26T14:30:27.408Z,5.88
2023-04-26T14:33:28.422Z,2.03
2023-04-26T14:36:29.739Z,3.78
2023-04-26T14:39:30.678Z,3.70
2023-04-26T14:42:31.421Z,4.50
2023-04-26T14:45:43.994Z,4.50
2023-04-26T14:48:46.623Z,5.03
2023-04-26T14:51:47.743Z,2.17
2023-04-26T14:54:48.593Z,4.80
2023-04-26T14:57:50.756Z,4.05
2023-04-26T15:00:52.600Z,2.35
2023-04-26T15:03:53.671Z,4.43
2023-04-26T15:06:54.803Z,3.80
2023-04-26T15:09:55.482Z,4.53
2023-04-26T15:12:56.691Z,2.67
2023-04-26T15:15:57.816Z,2.72
2023-04-26T15:18:58.724Z,3.40
2023-04-26T15:22:00.032Z,3.67
2023-04-26T15:25:01.764Z,5.30
2023-04-26T15:28:03.994Z,2.00
2023-04-26T15:31:09.626Z,5.80
2023-04-26T15:34:10.890Z,3.63
2023-04-26T15:37:12.475Z,4.53
2023-04-26T15:40:13.985Z,4.28
2023-04-26T15:43:16.522Z,3.90
2023-04-26T15:46:17.973Z,2.50
2023-04-26T15:49:19.393Z,2.80
2023-04-26T15:52:20.473Z,3.40
2023-04-26T15:55:21.789Z,2.47
2023-04-26T15:58:23.096Z,5.95
2023-04-26T16:01:24.566Z,3.10
2023-04-26T16:04:25.624Z,4.72
2023-04-26T16:07:26.752Z,4.45
2023-04-26T16:10:27.845Z,3.55
2023-04-26T16:13:30.098Z,3.70
2023-04-26T16:16:31.319Z,3.20
2023-04-26T16:19:32.697Z,3.40
2023-04-26T16:22:35.319Z,1.48
2023-04-26T16:25:36.417Z,2.58
2023-04-26T16:28:37.718Z,5.65
2023-04-26T16:31:39.045Z,3.35
2023-04-26T16:34:40.077Z,4.43
2023-04-26T16:37:41.987Z,3.20
2023-04-26T16:40:42.762Z,2.50
2023-04-26T16:43:43.936Z,6.63
2023-04-26T16:46:44.749Z,2.58
2023-04-26T16:49:46.663Z,3.33
2023-04-26T16:52:47.578Z,3.47
2023-04-26T16:55:50.540Z,2.72
2023-04-26T16:58:51.893Z,2.97
2023-04-26T17:01:53.538Z,6.68
2023-04-26T17:04:55.306Z,4.28
2023-04-26T17:07:56.947Z,5.25
2023-04-26T17:10:58.053Z,4.20
2023-04-26T17:13:58.883Z,4.82
2023-04-26T17:16:59.704Z,2.28
2023-04-26T17:20:01.029Z,2.22
2023-04-26T17:23:08.796Z,4.72
2023-04-26T17:29:11.215Z,2.60
2023-04-26T17:32:12.688Z,2.95
2023-04-26T17:35:13.821Z,3.58
2023-04-26T17:38:14.755Z,3.55
2023-04-26T17:41:18.694Z,3.53
2023-04-26T17:44:19.946Z,3.95
2023-04-26T17:47:20.969Z,5.05
2023-04-26T17:50:23.744Z,2.35
2023-04-26T17:53:24.967Z,2.47
2023-04-26T17:56:25.959Z,3.42
2023-04-26T17:59:26.994Z,5.53
2023-04-26T18:02:28.091Z,3.83
2023-04-26T18:05:29.629Z,3.38
2023-04-26T18:08:30.729Z,3.72
2023-04-26T18:11:32.253Z,2.65
2023-04-26T18:14:33.704Z,3.88
2023-04-26T18:17:34.841Z,3.85
2023-04-26T18:20:39.157Z,4.95
2023-04-26T18:23:40.173Z,4.22
2023-04-26T18:26:41.739Z,4.32
2023-04-26T18:29:42.790Z,7.95
2023-04-26T18:32:44.124Z,3.78
2023-04-26T18:35:45.005Z,6.20
2023-04-26T18:38:45.822Z,6.57
2023-04-26T18:41:46.907Z,4.53
2023-04-26T18:44:47.869Z,4.13
2023-04-26T18:47:49.054Z,6.18
2023-04-26T18:50:55.066Z,3.88
2023-04-26T18:53:56.068Z,5.40
2023-04-26T18:56:56.952Z,6.13
2023-04-26T18:59:59.265Z,6.75
2023-04-26T19:03:00.554Z,5.10
2023-04-26T19:06:01.643Z,4.80
2023-04-26T19:09:02.779Z,5.63
2023-04-26T19:12:06.210Z,7.65
2023-04-26T19:15:08.235Z,5.35
2023-04-26T19:18:09.999Z,7.97
2023-04-26T19:21:10.838Z,4.47
2023-04-26T19:24:12.477Z,4.97
2023-04-26T19:27:13.517Z,4.18
2023-04-26T19:30:14.620Z,6.47
2023-04-26T19:33:15.744Z,4.65
2023-04-26T19:36:16.635Z,5.47
2023-04-26T19:39:17.610Z,6.70
2023-04-26T19:42:18.330Z,11.05
2023-04-26T19:45:20.772Z,7.93
2023-04-26T19:48:21.991Z,5.93
2023-04-26T19:51:22.695Z,4.70
2023-04-26T19:54:24.161Z,4.90
2023-04-26T19:57:24.936Z,5.68
2023-04-26T20:00:25.774Z,6.95
2023-04-26T20:03:26.736Z,7.78
2023-04-26T20:06:28.017Z,6.70
2023-04-26T20:09:28.913Z,7.70
2023-04-26T20:12:30.567Z,11.07
2023-04-26T20:15:33.654Z,5.30
2023-04-26T20:18:35.122Z,5.07
2023-04-26T20:21:36.432Z,6.32
2023-04-26T20:24:37.545Z,5.63
2023-04-26T20:27:38.498Z,5.82
2023-04-26T20:30:39.578Z,5.90
2023-04-26T20:33:40.591Z,5.65
2023-04-26T20:36:41.959Z,5.47
2023-04-26T20:39:43.294Z,7.53
2023-04-26T20:42:44.195Z,5.40
2023-04-26T20:45:45.609Z,5.63
2023-04-26T20:48:47.230Z,5.55
2023-04-26T20:51:48.319Z,7.35
2023-04-26T20:54:49.297Z,5.60
2023-04-26T20:57:50.246Z,4.90
2023-04-26T21:00:55.735Z,5.47
2023-04-26T21:03:56.998Z,4.35
2023-04-26T21:06:58.201Z,8.00
2023-04-26T21:09:59.173Z,5.22
2023-04-26T21:13:00.005Z,4.22
2023-04-26T21:16:02.545Z,3.70
2023-04-26T21:19:03.758Z,7.32
2023-04-26T21:22:05.026Z,5.55
2023-04-26T21:25:06.808Z,7.70
2023-04-26T21:28:07.696Z,4.10
2023-04-26T21:31:08.988Z,4.10
2023-04-26T21:34:09.844Z,6.13
2023-04-26T21:37:10.978Z,6.90
2023-04-26T21:40:12.666Z,7.43
2023-04-26T21:43:15.783Z,6.43
2023-04-26T21:46:16.879Z,6.90
2023-04-26T21:49:17.827Z,5.95
2023-04-26T21:52:19.194Z,4.70
2023-04-26T21:55:20.045Z,5.57
2023-04-26T21:58:22.134Z,4.40
2023-04-26T22:01:23.194Z,12.20
2023-04-26T22:04:24.506Z,4.72
2023-04-26T22:07:25.825Z,6.03
2023-04-26T22:10:27.091Z,4.57
2023-04-26T22:13:28.713Z,5.32
2023-04-26T22:16:29.736Z,6.72
2023-04-26T22:19:30.953Z,6.88
2023-04-26T22:22:32.136Z,8.27
2023-04-26T22:25:33.021Z,5.78
2023-04-26T22:28:33.964Z,5.85
2023-04-26T22:31:35.199Z,6.03
2023-04-26T22:34:36.376Z,4.72
2023-04-26T22:37:37.387Z,7.93
2023-04-26T22:40:38.430Z,7.30
2023-04-26T22:43:41.718Z,10.05
2023-04-26T22:46:42.792Z,6.78
2023-04-26T22:49:44.115Z,7.38
2023-04-26T22:52:45.152Z,7.63
2023-04-26T22:55:46.468Z,6.05
2023-04-26T22:58:47.456Z,9.57
2023-04-26T23:01:48.248Z,10.25
2023-04-26T23:04:49.655Z,6.47
2023-04-26T23:07:50.818Z,5.68
2023-04-26T23:10:51.812Z,8.27
2023-04-26T23:13:54.635Z,5.32
2023-04-26T23:16:58.812Z,7.40
2023-04-26T23:20:00.489Z,12.00
2023-04-26T23:23:01.405Z,5.38
2023-04-26T23:26:08.228Z,5.78
2023-04-26T23:29:09.923Z,8.98
2023-04-26T23:32:10.739Z,10.18
2023-04-26T23:35:11.582Z,5.28
2023-04-26T23:38:12.507Z,6.15
2023-04-26T23:41:13.822Z,6.05
2023-04-26T23:44:14.723Z,5.53
2023-04-26T23:47:16.293Z,5.32
2023-04-26T23:50:17.386Z,5.50
2023-04-26T23:53:18.201Z,7.75
2023-04-26T23:56:19.825Z,8.65
2023-04-26T23:59:21.158Z,9.77
